createdAt,value
2023-01-07T00:00:02.528Z,5.10
2023-01-07T00:02:11.031Z,6.47
2023-01-07T00:04:21.372Z,7.80
2023-01-07T00:06:30.479Z,9.50
2023-01-07T00:08:39.682Z,7.47
2023-01-07T00:10:48.147Z,4.90
2023-01-07T00:12:58.059Z,7.07
2023-01-07T00:15:06.969Z,8.67
2023-01-07T00:17:15.475Z,5.53
2023-01-07T00:19:24.314Z,5.13
2023-01-07T00:21:33.056Z,4.83
2023-01-07T00:23:42.186Z,9.17
2023-01-07T00:25:50.674Z,6.43
2023-01-07T00:28:00.579Z,4.87
2023-01-07T00:30:09.769Z,6.07
2023-01-07T00:32:18.286Z,9.33
2023-01-07T00:34:26.744Z,6.50
2023-01-07T00:36:36.513Z,6.00
2023-01-07T00:38:44.909Z,4.10
2023-01-07T00:40:53.386Z,7.63
2023-01-07T00:43:05.113Z,7.10
2023-01-07T00:45:13.641Z,4.50
2023-01-07T00:47:22.507Z,3.50
2023-01-07T00:49:31.030Z,7.90
2023-01-07T00:51:39.445Z,7.83
2023-01-07T00:53:48.232Z,6.80
2023-01-07T00:55:56.866Z,4.63
2023-01-07T00:58:06.855Z,7.77
2023-01-07T01:00:16.287Z,7.33
2023-01-07T01:02:24.881Z,7.30
2023-01-07T01:04:33.555Z,6.47
2023-01-07T01:06:41.954Z,5.03
2023-01-07T01:08:50.595Z,3.80
2023-01-07T01:11:04.169Z,4.47
2023-01-07T01:13:17.976Z,7.20
2023-01-07T01:15:26.662Z,6.20
2023-01-07T01:17:35.145Z,4.57
2023-01-07T01:19:43.634Z,5.67
2023-01-07T01:21:52.108Z,5.17
2023-01-07T01:24:00.603Z,7.07
2023-01-07T01:26:10.374Z,5.50
2023-01-07T01:28:20.166Z,5.40
2023-01-07T01:30:29.060Z,6.43
2023-01-07T01:32:37.551Z,7.77
2023-01-07T01:34:45.984Z,8.77
2023-01-07T01:36:54.433Z,5.87
2023-01-07T01:39:02.884Z,5.43
2023-01-07T01:41:11.384Z,7.73
2023-01-07T01:43:29.156Z,3.30
2023-01-07T01:45:37.719Z,4.93
2023-01-07T01:47:48.159Z,5.07
2023-01-07T01:49:59.445Z,5.67
2023-01-07T01:52:11.567Z,5.10
2023-01-07T01:54:21.848Z,4.90
2023-01-07T01:56:32.433Z,3.97
2023-01-07T01:58:43.865Z,6.83
2023-01-07T02:00:52.966Z,6.73
2023-01-07T02:03:01.781Z,5.30
2023-01-07T02:05:10.492Z,4.73
2023-01-07T02:07:19.543Z,4.17
2023-01-07T02:09:28.065Z,5.27
2023-01-07T02:11:41.112Z,4.27
2023-01-07T02:13:58.410Z,6.30
2023-01-07T02:16:13.785Z,4.53
2023-01-07T02:18:29.324Z,7.37
2023-01-07T02:20:48.324Z,9.77
2023-01-07T02:23:13.564Z,4.77
2023-01-07T02:25:42.110Z,8.43
2023-01-07T02:28:05.659Z,3.60
2023-01-07T02:30:34.452Z,6.20
2023-01-07T02:32:53.626Z,5.77
2023-01-07T02:35:07.753Z,5.77
2023-01-07T02:37:19.088Z,5.97
2023-01-07T02:39:33.477Z,6.70
2023-01-07T02:41:46.265Z,7.40
2023-01-07T02:43:57.363Z,6.30
2023-01-07T02:46:10.524Z,6.13
2023-01-07T02:48:21.655Z,7.57
2023-01-07T02:50:30.235Z,6.13
2023-01-07T02:52:38.820Z,4.63
2023-01-07T02:54:49.933Z,6.53
2023-01-07T02:57:11.394Z,5.50
2023-01-07T02:59:29.395Z,6.67
2023-01-07T03:01:54.541Z,7.23
2023-01-07T03:04:11.243Z,8.50
2023-01-07T03:06:27.488Z,5.90
2023-01-07T03:08:39.762Z,6.63
2023-01-07T03:10:52.663Z,6.77
2023-01-07T03:13:04.611Z,6.93
2023-01-07T03:15:16.276Z,6.40
2023-01-07T03:17:27.422Z,6.53
2023-01-07T03:19:40.389Z,6.13
2023-01-07T03:21:49.643Z,6.33
2023-01-07T03:23:58.684Z,4.97
2023-01-07T03:26:07.938Z,6.00
2023-01-07T03:28:18.200Z,4.90
2023-01-07T03:30:27.102Z,4.53
2023-01-07T03:32:40.564Z,3.53
2023-01-07T03:34:50.779Z,6.30
2023-01-07T03:37:00.108Z,7.27
2023-01-07T03:39:10.687Z,5.23
2023-01-07T03:41:33.038Z,4.37
2023-01-07T03:43:41.504Z,3.77
2023-01-07T03:45:50.821Z,4.50
2023-01-07T03:47:59.637Z,3.43
2023-01-07T03:50:09.984Z,5.37
2023-01-07T03:52:18.403Z,4.23
2023-01-07T03:54:26.827Z,2.17
2023-01-07T03:56:35.431Z,4.73
2023-01-07T03:58:44.230Z,8.57
2023-01-07T04:00:52.830Z,6.27
2023-01-07T04:03:01.594Z,6.00
2023-01-07T04:05:11.955Z,4.97
2023-01-07T04:07:21.050Z,4.60
2023-01-07T04:09:29.479Z,6.97
2023-01-07T04:11:37.958Z,7.13
2023-01-07T04:13:46.375Z,5.63
2023-01-07T04:15:54.838Z,5.23
2023-01-07T04:18:03.288Z,8.37
2023-01-07T04:20:13.431Z,6.43
2023-01-07T04:22:22.074Z,4.97
2023-01-07T04:24:30.503Z,8.73
2023-01-07T04:26:38.943Z,4.07
2023-01-07T04:28:47.449Z,6.53
2023-01-07T04:30:56.032Z,3.93
2023-01-07T04:33:04.519Z,6.93
2023-01-07T04:35:14.541Z,3.33
2023-01-07T04:37:23.017Z,4.27
2023-01-07T04:39:31.435Z,6.60
2023-01-07T04:41:39.880Z,8.67
2023-01-07T04:43:48.364Z,6.07
2023-01-07T04:45:56.826Z,5.93
2023-01-07T04:48:05.434Z,4.57
2023-01-07T04:50:15.412Z,7.43
2023-01-07T04:52:23.939Z,5.73
2023-01-07T04:54:32.466Z,6.40
2023-01-07T04:56:40.960Z,6.97
2023-01-07T04:58:49.388Z,4.90
2023-01-07T05:00:58.816Z,6.70
2023-01-07T05:03:07.635Z,4.27
2023-01-07T05:05:17.539Z,6.87
2023-01-07T05:07:26.020Z,6.90
2023-01-07T05:09:34.466Z,7.97
2023-01-07T05:11:42.981Z,5.03
2023-01-07T05:13:51.596Z,7.60
2023-01-07T05:16:00.049Z,7.07
2023-01-07T05:18:08.596Z,6.33
2023-01-07T05:20:18.443Z,6.03
2023-01-07T05:22:26.947Z,7.30
2023-01-07T05:24:35.336Z,8.70
2023-01-07T05:26:43.874Z,6.57
2023-01-07T05:28:52.300Z,7.07
2023-01-07T05:31:00.788Z,6.43
2023-01-07T05:33:09.445Z,9.10
2023-01-07T05:35:19.478Z,5.70
2023-01-07T05:37:27.936Z,6.37
2023-01-07T05:39:36.457Z,4.97
2023-01-07T05:41:44.924Z,4.83
2023-01-07T05:43:53.439Z,5.50
2023-01-07T05:46:01.899Z,4.43
2023-01-07T05:48:10.396Z,6.40
2023-01-07T05:50:20.263Z,7.90
2023-01-07T05:52:28.765Z,6.43
2023-01-07T05:54:37.242Z,8.53
2023-01-07T05:56:45.685Z,7.40
2023-01-07T05:58:54.192Z,5.80
2023-01-07T06:01:02.695Z,5.33
2023-01-07T06:03:11.303Z,3.27
2023-01-07T06:05:22.431Z,8.70
2023-01-07T06:07:30.928Z,4.40
2023-01-07T06:09:39.469Z,5.37
2023-01-07T06:11:47.889Z,5.03
2023-01-07T06:13:56.378Z,5.63
2023-01-07T06:16:05.684Z,6.60
2023-01-07T06:18:14.217Z,8.60
2023-01-07T06:20:24.524Z,5.43
2023-01-07T06:22:33.025Z,5.87
2023-01-07T06:24:41.487Z,5.23
2023-01-07T06:26:49.963Z,6.73
2023-01-07T06:28:58.399Z,5.17
2023-01-07T06:31:07.070Z,4.47
2023-01-07T06:33:15.563Z,7.13
2023-01-07T06:35:25.384Z,5.47
2023-01-07T06:37:33.992Z,4.67
2023-01-07T06:39:42.448Z,6.03
2023-01-07T06:41:50.936Z,5.93
2023-01-07T06:43:59.407Z,5.23
2023-01-07T06:46:08.055Z,4.97
2023-01-07T06:48:16.613Z,4.70
2023-01-07T06:50:26.908Z,5.07
2023-01-07T06:52:35.372Z,7.27
2023-01-07T06:54:43.821Z,7.00
2023-01-07T06:56:52.338Z,6.03
2023-01-07T06:59:00.858Z,6.30
2023-01-07T07:01:09.935Z,7.57
2023-01-07T07:03:18.592Z,6.10
2023-01-07T07:05:29.495Z,7.80
2023-01-07T07:07:38.114Z,12.13
2023-01-07T07:09:46.619Z,6.30
2023-01-07T07:11:55.768Z,6.30
2023-01-07T07:14:04.413Z,5.53
2023-01-07T07:16:12.952Z,5.57
2023-01-07T07:18:22.595Z,4.87
2023-01-07T07:20:32.387Z,5.47
2023-01-07T07:22:45.731Z,5.07
2023-01-07T07:24:54.169Z,6.67
2023-01-07T07:27:04.007Z,6.07
2023-01-07T07:29:12.715Z,7.60
2023-01-07T07:31:21.158Z,6.47
2023-01-07T07:33:29.881Z,9.33
2023-01-07T07:35:39.768Z,7.80
2023-01-07T07:37:48.182Z,5.97
2023-01-07T07:39:56.619Z,6.10
2023-01-07T07:42:05.713Z,5.07
2023-01-07T07:44:14.371Z,6.10
2023-01-07T07:46:22.861Z,7.13
2023-01-07T07:48:31.413Z,5.33
2023-01-07T07:50:41.347Z,6.33
2023-01-07T07:52:49.846Z,8.33
2023-01-07T07:54:58.311Z,7.87
2023-01-07T07:57:26.806Z,6.97
2023-01-07T07:59:35.250Z,7.30
2023-01-07T08:01:43.739Z,5.90
2023-01-07T08:03:52.301Z,8.23
2023-01-07T08:06:02.148Z,6.37
2023-01-07T08:08:11.560Z,9.57
2023-01-07T08:10:20.624Z,6.47
2023-01-07T08:12:29.159Z,5.03
2023-01-07T08:14:37.844Z,7.83
2023-01-07T08:16:46.343Z,7.13
2023-01-07T08:18:54.776Z,7.00
2023-01-07T08:21:04.573Z,4.77
2023-01-07T08:23:13.035Z,6.27
2023-01-07T08:25:21.502Z,6.43
2023-01-07T08:27:30.317Z,7.03
2023-01-07T08:29:38.712Z,7.33
2023-01-07T08:31:47.115Z,9.83
2023-01-07T08:33:55.627Z,6.73
2023-01-07T08:36:09.283Z,5.60
2023-01-07T08:38:20.554Z,6.53
2023-01-07T08:40:29.081Z,8.37
2023-01-07T08:42:37.501Z,7.17
2023-01-07T08:44:45.957Z,7.13
2023-01-07T08:46:54.730Z,7.83
2023-01-07T08:49:03.166Z,8.90
2023-01-07T08:51:13.034Z,7.93
2023-01-07T08:53:21.765Z,9.77
2023-01-07T08:55:30.269Z,7.53
2023-01-07T08:57:38.674Z,10.63
2023-01-07T08:59:47.158Z,8.90
2023-01-07T09:01:55.771Z,8.20
2023-01-07T09:04:04.364Z,8.83
2023-01-07T09:06:14.139Z,8.87
2023-01-07T09:08:22.689Z,7.13
2023-01-07T09:10:31.362Z,8.03
2023-01-07T09:12:40.122Z,6.43
2023-01-07T09:14:48.592Z,5.93
2023-01-07T09:16:57.139Z,9.13
2023-01-07T09:19:05.593Z,7.20
2023-01-07T09:21:15.524Z,6.50
2023-01-07T09:23:24.036Z,7.83
2023-01-07T09:25:32.521Z,7.07
2023-01-07T09:27:42.334Z,7.37
2023-01-07T09:29:50.760Z,9.50
2023-01-07T09:31:59.279Z,8.23
2023-01-07T09:34:07.801Z,8.30
2023-01-07T09:36:17.714Z,7.63
2023-01-07T09:38:26.179Z,5.70
2023-01-07T09:40:37.499Z,7.37
2023-01-07T09:42:52.903Z,7.87
2023-01-07T09:45:12.737Z,7.77
2023-01-07T09:47:23.107Z,8.37
2023-01-07T09:49:33.330Z,12.40
2023-01-07T09:51:45.622Z,7.70
2023-01-07T09:53:55.960Z,8.50
2023-01-07T09:56:10.826Z,7.20
2023-01-07T09:58:21.902Z,8.80
2023-01-07T10:00:30.828Z,6.27
2023-01-07T10:02:43.215Z,6.73
2023-01-07T10:04:57.172Z,8.93
2023-01-07T10:07:13.382Z,9.47
2023-01-07T10:09:27.686Z,7.47
2023-01-07T10:11:44.105Z,8.80
2023-01-07T10:14:03.981Z,7.87
2023-01-07T10:16:14.922Z,9.57
2023-01-07T10:18:36.244Z,9.57
2023-01-07T10:20:47.901Z,8.17
2023-01-07T10:23:00.408Z,7.53
2023-01-07T10:25:14.107Z,9.40
2023-01-07T10:27:31.166Z,7.37
2023-01-07T10:29:41.648Z,6.87
2023-01-07T10:31:50.574Z,5.27
2023-01-07T10:33:59.408Z,7.63
2023-01-07T10:36:11.923Z,7.50
2023-01-07T10:38:21.947Z,7.70
2023-01-07T10:40:34.410Z,5.50
2023-01-07T10:42:44.761Z,7.67
2023-01-07T10:45:11.444Z,6.67
2023-01-07T10:47:23.747Z,6.70
2023-01-07T10:49:36.255Z,8.40
2023-01-07T10:52:02.664Z,6.57
2023-01-07T10:54:16.185Z,6.90
2023-01-07T10:56:27.659Z,6.47
2023-01-07T10:58:39.952Z,8.33
2023-01-07T11:00:49.206Z,8.30
2023-01-07T11:03:00.036Z,7.60
2023-01-07T11:05:08.948Z,8.23
2023-01-07T11:07:22.869Z,10.73
2023-01-07T11:09:34.436Z,5.67
2023-01-07T11:11:44.252Z,7.50
2023-01-07T11:13:56.901Z,5.57
2023-01-07T11:16:10.275Z,6.27
2023-01-07T11:18:21.667Z,6.47
2023-01-07T11:20:46.499Z,6.13
2023-01-07T11:22:55.047Z,8.03
2023-01-07T11:25:23.478Z,10.30
2023-01-07T11:27:33.475Z,7.00
2023-01-07T11:29:44.424Z,7.20
2023-01-07T11:31:54.171Z,6.00
2023-01-07T11:34:04.704Z,8.30
2023-01-07T11:36:13.331Z,7.67
2023-01-07T11:38:28.993Z,9.70
2023-01-07T11:40:38.802Z,7.03
2023-01-07T11:42:51.322Z,6.70
2023-01-07T11:45:15.534Z,7.10
2023-01-07T11:47:23.985Z,7.93
2023-01-07T11:49:32.856Z,10.03
2023-01-07T11:51:41.958Z,10.00
2023-01-07T11:53:55.685Z,8.50
2023-01-07T11:56:07.018Z,10.70
2023-01-07T11:58:29.905Z,8.07
2023-01-07T12:00:39.163Z,8.70
2023-01-07T12:02:47.988Z,6.80
2023-01-07T12:05:17.415Z,7.50
2023-01-07T12:07:26.563Z,8.60
2023-01-07T12:09:37.024Z,9.00
2023-01-07T12:11:47.306Z,8.53
2023-01-07T12:13:55.907Z,8.93
2023-01-07T12:16:05.429Z,7.37
2023-01-07T12:18:26.985Z,11.00
2023-01-07T12:20:41.101Z,7.03
2023-01-07T12:22:58.732Z,7.50
2023-01-07T12:25:15.177Z,8.13
2023-01-07T12:27:31.515Z,12.30
2023-01-07T12:29:49.116Z,6.53
2023-01-07T12:32:05.404Z,9.37
2023-01-07T12:34:20.492Z,7.47
2023-01-07T12:36:32.366Z,7.33
2023-01-07T12:38:43.139Z,7.70
2023-01-07T12:40:53.536Z,8.13
2023-01-07T12:43:06.881Z,8.23
2023-01-07T12:45:19.097Z,8.53
2023-01-07T12:47:30.420Z,8.77
2023-01-07T12:49:43.482Z,8.17
2023-01-07T12:51:55.332Z,9.50
2023-01-07T12:54:06.080Z,8.50
2023-01-07T12:56:17.412Z,7.50
2023-01-07T12:58:33.932Z,7.57
2023-01-07T13:00:44.008Z,7.13
2023-01-07T13:02:55.187Z,8.13
2023-01-07T13:05:07.651Z,6.10
2023-01-07T13:07:18.372Z,6.20
2023-01-07T13:09:29.493Z,6.93
2023-01-07T13:11:57.935Z,6.77
2023-01-07T13:14:07.946Z,7.80
2023-01-07T13:16:16.459Z,9.90
2023-01-07T13:18:25.041Z,8.17
2023-01-07T13:20:41.113Z,8.90
2023-01-07T13:22:52.806Z,7.73
2023-01-07T13:25:12.307Z,8.57
2023-01-07T13:27:25.722Z,7.33
2023-01-07T13:29:50.569Z,8.70
2023-01-07T13:32:17.148Z,8.20
2023-01-07T13:34:28.506Z,9.43
2023-01-07T13:36:41.075Z,8.10
2023-01-07T13:39:00.860Z,8.47
2023-01-07T13:41:15.419Z,6.20
2023-01-07T13:43:32.396Z,8.57
2023-01-07T13:45:43.163Z,11.30
2023-01-07T13:47:52.743Z,7.93
2023-01-07T13:50:02.487Z,10.57
2023-01-07T13:52:15.895Z,9.73
2023-01-07T13:54:43.080Z,8.93
2023-01-07T13:56:52.724Z,7.07
2023-01-07T13:59:01.689Z,8.77
2023-01-07T14:01:12.210Z,9.47
2023-01-07T14:03:35.690Z,7.27
2023-01-07T14:05:44.237Z,7.40
2023-01-07T14:07:53.831Z,9.47
2023-01-07T14:10:03.476Z,7.70
2023-01-07T14:12:35.968Z,9.73
2023-01-07T14:14:48.687Z,9.93
2023-01-07T14:17:03.756Z,11.37
2023-01-07T14:19:17.479Z,10.53
2023-01-07T14:21:46.917Z,11.63
2023-01-07T14:24:03.020Z,10.03
2023-01-07T14:26:17.044Z,10.40
2023-01-07T14:28:58.683Z,9.07
2023-01-07T14:31:07.386Z,9.93
2023-01-07T14:33:21.253Z,9.23
2023-01-07T14:35:33.303Z,10.40
2023-01-07T14:37:45.190Z,13.90
2023-01-07T14:39:53.721Z,12.23
2023-01-07T14:42:20.995Z,14.73
2023-01-07T14:44:31.492Z,10.97
2023-01-07T14:47:01.001Z,10.47
2023-01-07T14:49:20.275Z,12.23
2023-01-07T14:51:39.783Z,11.90
2023-01-07T14:53:58.052Z,12.33
2023-01-07T14:56:15.140Z,12.17
2023-01-07T14:58:41.296Z,11.77
2023-01-07T15:00:57.801Z,11.47
2023-01-07T15:03:27.319Z,14.70
2023-01-07T15:05:57.798Z,11.90
2023-01-07T15:08:25.491Z,12.37
2023-01-07T15:11:00.638Z,11.73
2023-01-07T15:13:27.179Z,17.23
2023-01-07T15:15:55.298Z,13.90
2023-01-07T15:18:03.744Z,13.20
2023-01-07T15:20:12.921Z,14.23
2023-01-07T15:22:38.395Z,14.23
2023-01-07T15:24:51.168Z,12.17
2023-01-07T15:27:03.811Z,10.20
2023-01-07T15:29:15.889Z,16.37
2023-01-07T15:31:26.524Z,14.73
2023-01-07T15:33:52.200Z,17.57
2023-01-07T15:36:00.758Z,12.80
2023-01-07T15:38:22.478Z,14.17
2023-01-07T15:40:30.948Z,16.60
2023-01-07T15:42:39.563Z,12.60
2023-01-07T15:44:50.303Z,11.13
2023-01-07T15:46:58.852Z,14.57
2023-01-07T15:49:18.481Z,13.63
2023-01-07T15:51:27.023Z,16.60
2023-01-07T15:53:36.975Z,14.00
2023-01-07T15:55:46.880Z,15.50
2023-01-07T15:57:58.281Z,14.50
2023-01-07T16:00:10.446Z,15.77
2023-01-07T16:02:22.158Z,15.03
2023-01-07T16:04:32.679Z,18.53
2023-01-07T16:06:45.586Z,17.23
2023-01-07T16:08:55.565Z,18.50
2023-01-07T16:11:05.020Z,17.57
2023-01-07T16:13:19.075Z,14.30
2023-01-07T16:15:28.853Z,18.10
2023-01-07T16:17:37.494Z,16.90
2023-01-07T16:19:45.964Z,16.63
2023-01-07T16:21:55.379Z,21.67
2023-01-07T16:24:05.468Z,20.90
2023-01-07T16:26:16.829Z,22.27
2023-01-07T16:28:27.485Z,19.43
2023-01-07T16:30:40.980Z,18.13
2023-01-07T16:32:49.751Z,18.33
2023-01-07T16:35:00.523Z,13.83
2023-01-07T16:37:14.458Z,18.97
2023-01-07T16:39:25.759Z,19.50
2023-01-07T16:41:34.425Z,15.60
2023-01-07T16:43:44.659Z,22.37
2023-01-07T16:46:09.127Z,19.40
2023-01-07T16:48:20.346Z,19.73
2023-01-07T16:50:36.998Z,18.00
2023-01-07T16:52:51.393Z,19.90
2023-01-07T16:55:01.551Z,18.10
2023-01-07T16:57:22.292Z,16.70
2023-01-07T16:59:32.075Z,19.90
2023-01-07T17:01:40.653Z,17.77
2023-01-07T17:03:50.719Z,22.83
2023-01-07T17:06:04.437Z,23.57
2023-01-07T17:08:19.386Z,18.03
2023-01-07T17:10:30.522Z,23.70
2023-01-07T17:12:40.145Z,19.20
2023-01-07T17:14:49.535Z,21.43
2023-01-07T17:17:01.154Z,25.10
2023-01-07T17:19:26.484Z,19.47
2023-01-07T17:21:38.624Z,24.33
2023-01-07T17:23:47.075Z,23.53
2023-01-07T17:26:00.524Z,20.77
2023-01-07T17:28:10.464Z,17.27
2023-01-07T17:30:19.995Z,18.40
2023-01-07T17:32:29.799Z,20.90
2023-01-07T17:34:38.290Z,19.70
2023-01-07T17:36:46.828Z,25.57
2023-01-07T17:38:55.481Z,22.73
2023-01-07T17:41:08.885Z,18.67
2023-01-07T17:43:36.913Z,18.83
2023-01-07T17:45:45.503Z,20.27
2023-01-07T17:47:53.991Z,22.90
2023-01-07T17:50:02.591Z,19.50
2023-01-07T17:52:11.387Z,21.47
2023-01-07T17:54:21.485Z,18.30
2023-01-07T17:56:31.410Z,19.80
2023-01-07T17:58:41.195Z,20.30
2023-01-07T18:00:49.698Z,20.70
2023-01-07T18:02:58.935Z,20.33
2023-01-07T18:05:07.931Z,24.47
2023-01-07T18:07:17.034Z,22.90
2023-01-07T18:09:25.527Z,25.03
2023-01-07T18:11:55.399Z,22.10
2023-01-07T18:14:03.902Z,30.80
2023-01-07T18:16:13.930Z,20.37
2023-01-07T18:18:22.428Z,16.83
2023-01-07T18:20:30.882Z,23.20
2023-01-07T18:22:39.342Z,26.27
2023-01-07T18:24:47.864Z,24.83
2023-01-07T18:26:57.691Z,28.37
2023-01-07T18:29:06.191Z,19.77
2023-01-07T18:31:14.716Z,28.97
2023-01-07T18:33:23.329Z,24.07
2023-01-07T18:35:31.819Z,19.43
2023-01-07T18:37:40.465Z,26.53
2023-01-07T18:39:48.976Z,25.57
2023-01-07T18:41:58.863Z,22.83
2023-01-07T18:44:07.517Z,23.40
2023-01-07T18:46:17.582Z,24.60
2023-01-07T18:48:26.480Z,25.67
2023-01-07T18:50:35.017Z,24.37
2023-01-07T18:52:44.101Z,25.43
2023-01-07T18:54:52.563Z,25.50
2023-01-07T18:57:02.561Z,19.87
2023-01-07T18:59:11.308Z,22.60
2023-01-07T19:01:19.878Z,24.67
2023-01-07T19:03:28.585Z,25.10
2023-01-07T19:05:37.065Z,25.23
2023-01-07T19:07:45.556Z,24.87
2023-01-07T19:09:54.042Z,21.20
2023-01-07T19:12:03.930Z,24.50
2023-01-07T19:14:12.424Z,29.70
2023-01-07T19:16:20.930Z,30.30
2023-01-07T19:18:29.580Z,24.43
2023-01-07T19:20:38.185Z,31.97
2023-01-07T19:22:46.649Z,32.80
2023-01-07T19:24:56.735Z,28.73
2023-01-07T19:27:07.488Z,23.57
2023-01-07T19:29:16.208Z,29.40
2023-01-07T19:31:24.735Z,26.60
2023-01-07T19:33:33.284Z,28.67
2023-01-07T19:35:41.764Z,27.60
2023-01-07T19:37:50.545Z,30.70
2023-01-07T19:39:59.066Z,29.23
2023-01-07T19:42:09.945Z,25.93
2023-01-07T19:44:18.538Z,32.97
2023-01-07T19:46:27.028Z,28.20
2023-01-07T19:48:35.709Z,26.27
2023-01-07T19:50:44.179Z,26.63
2023-01-07T19:52:52.683Z,28.03
2023-01-07T19:55:01.137Z,25.57
2023-01-07T19:57:11.322Z,28.00
2023-01-07T19:59:19.808Z,32.03
2023-01-07T20:01:28.911Z,29.50
2023-01-07T20:03:38.084Z,33.60
2023-01-07T20:05:46.556Z,29.10
2023-01-07T20:07:55.070Z,32.83
2023-01-07T20:10:03.575Z,32.43
2023-01-07T20:12:13.444Z,29.20
2023-01-07T20:14:22.094Z,35.53
2023-01-07T20:16:30.591Z,37.20
2023-01-07T20:18:39.688Z,30.67
2023-01-07T20:20:56.654Z,41.30
2023-01-07T20:23:05.202Z,36.47
2023-01-07T20:25:13.863Z,37.80
2023-01-07T20:27:23.711Z,30.23
2023-01-07T20:29:32.216Z,38.97
2023-01-07T20:31:40.725Z,34.50
2023-01-07T20:33:50.453Z,36.60
2023-01-07T20:36:02.607Z,34.33
2023-01-07T20:38:11.702Z,40.27
2023-01-07T20:40:20.193Z,35.03
2023-01-07T20:42:31.876Z,40.57
2023-01-07T20:44:41.541Z,44.90
2023-01-07T20:46:50.049Z,41.63
2023-01-07T20:48:59.558Z,39.23
2023-01-07T20:51:08.608Z,40.37
2023-01-07T20:53:17.133Z,42.50
2023-01-07T20:55:25.611Z,39.27
2023-01-07T20:57:35.514Z,37.47
2023-01-07T20:59:44.006Z,39.00
2023-01-07T21:01:52.823Z,46.77
2023-01-07T21:04:02.233Z,36.27
2023-01-07T21:06:11.671Z,37.43
2023-01-07T21:08:20.141Z,30.33
2023-01-07T21:10:28.636Z,34.80
2023-01-07T21:12:38.530Z,33.27
2023-01-07T21:14:47.146Z,39.93
2023-01-07T21:16:55.636Z,38.80
2023-01-07T21:19:04.086Z,36.03
2023-01-07T21:21:13.793Z,31.57
2023-01-07T21:23:22.313Z,41.80
2023-01-07T21:25:30.912Z,37.33
2023-01-07T21:27:40.843Z,34.63
2023-01-07T21:29:51.031Z,28.93
2023-01-07T21:32:00.886Z,29.13
2023-01-07T21:34:09.700Z,28.60
2023-01-07T21:36:19.294Z,28.83
2023-01-07T21:38:27.796Z,26.17
2023-01-07T21:40:36.439Z,23.87
2023-01-07T21:42:46.328Z,26.50
2023-01-07T21:44:54.813Z,26.37
2023-01-07T21:47:03.383Z,19.10
2023-01-07T21:49:11.895Z,23.27
2023-01-07T21:51:22.189Z,24.33
2023-01-07T21:53:31.089Z,25.77
2023-01-07T21:55:40.624Z,24.63
2023-01-07T21:57:50.495Z,29.23
2023-01-07T21:59:58.967Z,30.00
2023-01-07T22:02:07.587Z,26.67
2023-01-07T22:04:16.186Z,26.17
2023-01-07T22:06:26.348Z,27.47
2023-01-07T22:08:35.154Z,21.97
2023-01-07T22:10:49.405Z,29.67
2023-01-07T22:12:59.292Z,25.07
2023-01-07T22:15:08.237Z,34.07
2023-01-07T22:17:16.914Z,30.17
2023-01-07T22:19:26.644Z,24.90
2023-01-07T22:21:35.141Z,32.77
2023-01-07T22:23:44.949Z,25.87
2023-01-07T22:25:53.511Z,24.70
2023-01-07T22:28:04.842Z,27.53
2023-01-07T22:30:15.011Z,26.97
2023-01-07T22:32:23.758Z,31.20
2023-01-07T22:34:32.299Z,25.03
2023-01-07T22:36:44.294Z,20.70
2023-01-07T22:38:53.520Z,22.70
2023-01-07T22:41:03.891Z,18.30
2023-01-07T22:43:16.501Z,19.73
2023-01-07T22:45:29.859Z,22.67
2023-01-07T22:47:39.971Z,22.33
2023-01-07T22:49:49.255Z,15.80
2023-01-07T22:51:57.787Z,24.20
2023-01-07T22:54:06.439Z,19.57
2023-01-07T22:56:15.716Z,18.07
2023-01-07T22:58:25.641Z,18.00
2023-01-07T23:00:40.596Z,16.80
2023-01-07T23:02:49.141Z,20.73
2023-01-07T23:04:57.780Z,16.73
2023-01-07T23:07:06.276Z,23.63
2023-01-07T23:09:14.930Z,23.30
2023-01-07T23:11:41.027Z,14.27
2023-01-07T23:13:50.897Z,18.13
2023-01-07T23:16:01.908Z,12.90
2023-01-07T23:18:11.328Z,17.13
2023-01-07T23:20:19.803Z,17.00
2023-01-07T23:22:28.284Z,12.83
2023-01-07T23:24:38.021Z,15.50
2023-01-07T23:26:48.058Z,15.40
2023-01-07T23:28:57.932Z,12.77
2023-01-07T23:31:06.547Z,12.67
2023-01-07T23:33:15.065Z,16.70
2023-01-07T23:35:23.647Z,16.27
2023-01-07T23:37:32.779Z,15.90
2023-01-07T23:39:41.237Z,12.40
2023-01-07T23:41:49.748Z,13.80
2023-01-07T23:43:59.614Z,16.33
2023-01-07T23:46:09.122Z,12.77
2023-01-07T23:48:17.658Z,20.53
2023-01-07T23:50:26.108Z,16.07
2023-01-07T23:52:34.657Z,13.47
2023-01-07T23:54:43.155Z,16.27
2023-01-07T23:56:51.771Z,18.17
2023-01-07T23:59:03.031Z,22.27
